sensor_id;sensor_type;location;lat;lon;timestamp;P1;durP1;ratioP1;P2;durP2;ratioP2
34920;SDS011;21128;50.016;20.002;2023-03-01T00:01:42;86.00;;;41.45;;
34920;SDS011;21128;50.016;20.002;2023-03-01T00:04:08;78.03;;;39.57;;
34920;SDS011;21128;50.016;20.002;2023-03-01T00:06:35;81.73;;;41.17;;
34920;SDS011;21128;50.016;20.002;2023-03-01T00:09:03;78.63;;;38.83;;
34920;SDS011;21128;50.016;20.002;2023-03-01T00:11:31;87.00;;;41.50;;
34920;SDS011;21128;50.016;20.002;2023-03-01T00:14:00;68.75;;;36.35;;
34920;SDS011;21128;50.016;20.002;2023-03-01T00:16:32;72.37;;;35.97;;
34920;SDS011;21128;50.016;20.002;2023-03-01T00:19:08;74.90;;;39.13;;
34920;SDS011;21128;50.016;20.002;2023-03-01T00:21:39;86.37;;;40.53;;
34920;SDS011;21128;50.016;20.002;2023-03-01T00:24:07;81.23;;;39.83;;
34920;SDS011;21128;50.016;20.002;2023-03-01T00:26:34;71.27;;;36.83;;
34920;SDS011;21128;50.016;20.002;2023-03-01T00:29:01;74.45;;;38.70;;
34920;SDS011;21128;50.016;20.002;2023-03-01T00:31:29;69.12;;;38.17;;
34920;SDS011;21128;50.016;20.002;2023-03-01T00:34:01;90.03;;;45.27;;
34920;SDS011;21128;50.016;20.002;2023-03-01T00:36:31;93.85;;;50.05;;
34920;SDS011;21128;50.016;20.002;2023-03-01T00:39:01;88.87;;;45.80;;
34920;SDS011;21128;50.016;20.002;2023-03-01T00:41:29;100.17;;;51.37;;
34920;SDS011;21128;50.016;20.002;2023-03-01T00:43:57;106.37;;;52.70;;
34920;SDS011;21128;50.016;20.002;2023-03-01T00:46:25;97.60;;;48.92;;
34920;SDS011;21128;50.016;20.002;2023-03-01T00:48:53;86.13;;;42.77;;
34920;SDS011;21128;50.016;20.002;2023-03-01T00:51:21;83.20;;;43.20;;
34920;SDS011;21128;50.016;20.002;2023-03-01T00:53:51;93.03;;;46.27;;
34920;SDS011;21128;50.016;20.002;2023-03-01T00:56:20;103.03;;;49.60;;
34920;SDS011;21128;50.016;20.002;2023-03-01T00:58:47;92.90;;;47.87;;
34920;SDS011;21128;50.016;20.002;2023-03-01T01:01:19;97.35;;;49.35;;
34920;SDS011;21128;50.016;20.002;2023-03-01T01:03:52;110.53;;;54.67;;
34920;SDS011;21128;50.016;20.002;2023-03-01T01:06:24;124.00;;;63.43;;
34920;SDS011;21128;50.016;20.002;2023-03-01T01:08:54;140.00;;;69.20;;
34920;SDS011;21128;50.016;20.002;2023-03-01T01:11:23;148.73;;;74.43;;
34920;SDS011;21128;50.016;20.002;2023-03-01T01:13:51;145.93;;;73.73;;
34920;SDS011;21128;50.016;20.002;2023-03-01T01:16:20;155.20;;;78.17;;
34920;SDS011;21128;50.016;20.002;2023-03-01T01:18:49;180.80;;;88.00;;
34920;SDS011;21128;50.016;20.002;2023-03-01T01:21:17;169.03;;;81.87;;
34920;SDS011;21128;50.016;20.002;2023-03-01T01:23:45;164.70;;;77.00;;
34920;SDS011;21128;50.016;20.002;2023-03-01T01:26:18;147.93;;;69.73;;
34920;SDS011;21128;50.016;20.002;2023-03-01T01:28:46;138.23;;;68.53;;
34920;SDS011;21128;50.016;20.002;2023-03-01T01:31:14;124.53;;;62.83;;
34920;SDS011;21128;50.016;20.002;2023-03-01T01:33:41;109.50;;;53.40;;
34920;SDS011;21128;50.016;20.002;2023-03-01T01:36:08;106.87;;;51.07;;
34920;SDS011;21128;50.016;20.002;2023-03-01T01:38:36;96.72;;;49.25;;
34920;SDS011;21128;50.016;20.002;2023-03-01T01:41:05;96.07;;;49.43;;
34920;SDS011;21128;50.016;20.002;2023-03-01T01:43:34;116.70;;;57.63;;
34920;SDS011;21128;50.016;20.002;2023-03-01T01:46:04;124.67;;;62.67;;
34920;SDS011;21128;50.016;20.002;2023-03-01T01:48:46;109.10;;;55.53;;
34920;SDS011;21128;50.016;20.002;2023-03-01T01:51:21;104.27;;;54.03;;
34920;SDS011;21128;50.016;20.002;2023-03-01T01:53:53;114.27;;;56.00;;
34920;SDS011;21128;50.016;20.002;2023-03-01T01:56:27;101.97;;;53.10;;
34920;SDS011;21128;50.016;20.002;2023-03-01T01:58:56;111.70;;;54.63;;
34920;SDS011;21128;50.016;20.002;2023-03-01T02:01:24;107.55;;;51.35;;
34920;SDS011;21128;50.016;20.002;2023-03-01T02:03:52;105.87;;;51.77;;
34920;SDS011;21128;50.016;20.002;2023-03-01T02:06:21;107.23;;;52.60;;
34920;SDS011;21128;50.016;20.002;2023-03-01T02:09:19;104.10;;;51.35;;
34920;SDS011;21128;50.016;20.002;2023-03-01T02:11:48;101.73;;;51.53;;
34920;SDS011;21128;50.016;20.002;2023-03-01T02:14:17;101.83;;;53.50;;
34920;SDS011;21128;50.016;20.002;2023-03-01T02:16:44;108.63;;;55.23;;
34920;SDS011;21128;50.016;20.002;2023-03-01T02:19:13;113.13;;;58.37;;
34920;SDS011;21128;50.016;20.002;2023-03-01T02:24:28;112.77;;;57.43;;
34920;SDS011;21128;50.016;20.002;2023-03-01T02:27:05;108.85;;;56.40;;
34920;SDS011;21128;50.016;20.002;2023-03-01T02:29:32;109.80;;;55.03;;
34920;SDS011;21128;50.016;20.002;2023-03-01T02:31:59;111.07;;;54.07;;
34920;SDS011;21128;50.016;20.002;2023-03-01T02:34:29;117.00;;;53.53;;
34920;SDS011;21128;50.016;20.002;2023-03-01T02:37:03;110.15;;;53.55;;
34920;SDS011;21128;50.016;20.002;2023-03-01T02:39:38;107.50;;;54.33;;
34920;SDS011;21128;50.016;20.002;2023-03-01T02:42:17;98.17;;;50.87;;
34920;SDS011;21128;50.016;20.002;2023-03-01T02:44:52;99.80;;;52.27;;
34920;SDS011;21128;50.016;20.002;2023-03-01T02:47:20;101.70;;;49.60;;
34920;SDS011;21128;50.016;20.002;2023-03-01T02:49:47;108.72;;;52.38;;
34920;SDS011;21128;50.016;20.002;2023-03-01T02:52:21;102.70;;;51.25;;
34920;SDS011;21128;50.016;20.002;2023-03-01T02:55:09;105.83;;;51.47;;
34920;SDS011;21128;50.016;20.002;2023-03-01T02:57:40;104.20;;;54.03;;
34920;SDS011;21128;50.016;20.002;2023-03-01T03:00:10;100.10;;;51.57;;
34920;SDS011;21128;50.016;20.002;2023-03-01T03:02:51;98.65;;;49.50;;
34920;SDS011;21128;50.016;20.002;2023-03-01T03:05:21;101.37;;;51.03;;
34920;SDS011;21128;50.016;20.002;2023-03-01T03:07:50;93.17;;;48.30;;
34920;SDS011;21128;50.016;20.002;2023-03-01T03:10:19;104.30;;;52.93;;
34920;SDS011;21128;50.016;20.002;2023-03-01T03:12:55;90.37;;;48.67;;
34920;SDS011;21128;50.016;20.002;2023-03-01T03:15:24;100.40;;;50.17;;
34920;SDS011;21128;50.016;20.002;2023-03-01T03:17:52;100.77;;;48.47;;
34920;SDS011;21128;50.016;20.002;2023-03-01T03:20:20;103.77;;;50.10;;
34920;SDS011;21128;50.016;20.002;2023-03-01T03:22:50;94.03;;;49.10;;
34920;SDS011;21128;50.016;20.002;2023-03-01T03:25:19;98.60;;;51.57;;
34920;SDS011;21128;50.016;20.002;2023-03-01T03:27:48;99.90;;;50.53;;
34920;SDS011;21128;50.016;20.002;2023-03-01T03:30:18;103.10;;;52.47;;
34920;SDS011;21128;50.016;20.002;2023-03-01T03:32:46;102.80;;;52.90;;
34920;SDS011;21128;50.016;20.002;2023-03-01T03:35:27;107.13;;;51.47;;
34920;SDS011;21128;50.016;20.002;2023-03-01T03:37:57;101.93;;;51.60;;
34920;SDS011;21128;50.016;20.002;2023-03-01T03:40:34;100.33;;;51.65;;
34920;SDS011;21128;50.016;20.002;2023-03-01T03:43:13;100.30;;;51.87;;
34920;SDS011;21128;50.016;20.002;2023-03-01T03:45:43;98.00;;;50.30;;
34920;SDS011;21128;50.016;20.002;2023-03-01T03:48:11;105.00;;;53.27;;
34920;SDS011;21128;50.016;20.002;2023-03-01T03:50:39;103.00;;;50.40;;
34920;SDS011;21128;50.016;20.002;2023-03-01T03:53:08;109.57;;;51.13;;
34920;SDS011;21128;50.016;20.002;2023-03-01T03:55:37;97.43;;;50.40;;
34920;SDS011;21128;50.016;20.002;2023-03-01T03:58:06;103.07;;;53.97;;
34920;SDS011;21128;50.016;20.002;2023-03-01T04:00:36;102.93;;;50.27;;
34920;SDS011;21128;50.016;20.002;2023-03-01T04:03:05;95.60;;;48.87;;
34920;SDS011;21128;50.016;20.002;2023-03-01T04:05:33;93.13;;;48.70;;
34920;SDS011;21128;50.016;20.002;2023-03-01T04:08:02;99.00;;;49.20;;
34920;SDS011;21128;50.016;20.002;2023-03-01T04:10:30;99.07;;;50.53;;
34920;SDS011;21128;50.016;20.002;2023-03-01T04:12:59;90.70;;;48.60;;
34920;SDS011;21128;50.016;20.002;2023-03-01T04:15:27;117.40;;;55.92;;
34920;SDS011;21128;50.016;20.002;2023-03-01T04:17:54;106.07;;;51.23;;
34920;SDS011;21128;50.016;20.002;2023-03-01T04:20:26;92.77;;;48.20;;
34920;SDS011;21128;50.016;20.002;2023-03-01T04:23:01;92.33;;;46.47;;
34920;SDS011;21128;50.016;20.002;2023-03-01T04:25:37;96.30;;;47.65;;
34920;SDS011;21128;50.016;20.002;2023-03-01T04:28:08;97.67;;;47.17;;
34920;SDS011;21128;50.016;20.002;2023-03-01T04:30:36;98.85;;;48.60;;
34920;SDS011;21128;50.016;20.002;2023-03-01T04:33:05;92.77;;;48.03;;
34920;SDS011;21128;50.016;20.002;2023-03-01T04:35:33;100.57;;;50.00;;
34920;SDS011;21128;50.016;20.002;2023-03-01T04:38:01;94.83;;;49.30;;
34920;SDS011;21128;50.016;20.002;2023-03-01T04:40:30;99.77;;;50.23;;
34920;SDS011;21128;50.016;20.002;2023-03-01T04:42:57;106.35;;;52.70;;
34920;SDS011;21128;50.016;20.002;2023-03-01T04:45:24;96.10;;;49.87;;
34920;SDS011;21128;50.016;20.002;2023-03-01T04:47:51;94.57;;;46.53;;
34920;SDS011;21128;50.016;20.002;2023-03-01T04:50:21;99.70;;;48.70;;
34920;SDS011;21128;50.016;20.002;2023-03-01T04:52:50;88.70;;;45.97;;
34920;SDS011;21128;50.016;20.002;2023-03-01T04:55:17;82.30;;;42.73;;
34920;SDS011;21128;50.016;20.002;2023-03-01T04:57:44;87.15;;;43.25;;
34920;SDS011;21128;50.016;20.002;2023-03-01T05:00:12;99.05;;;47.20;;
34920;SDS011;21128;50.016;20.002;2023-03-01T05:02:50;86.90;;;44.83;;
34920;SDS011;21128;50.016;20.002;2023-03-01T05:07:55;86.30;;;43.57;;
34920;SDS011;21128;50.016;20.002;2023-03-01T05:10:24;88.52;;;46.48;;
34920;SDS011;21128;50.016;20.002;2023-03-01T05:12:53;92.33;;;46.73;;
34920;SDS011;21128;50.016;20.002;2023-03-01T05:15:20;94.13;;;46.13;;
34920;SDS011;21128;50.016;20.002;2023-03-01T05:17:52;92.63;;;48.23;;
34920;SDS011;21128;50.016;20.002;2023-03-01T05:20:21;91.30;;;46.70;;
34920;SDS011;21128;50.016;20.002;2023-03-01T05:22:49;97.43;;;46.50;;
34920;SDS011;21128;50.016;20.002;2023-03-01T05:25:17;96.00;;;47.17;;
34920;SDS011;21128;50.016;20.002;2023-03-01T05:27:44;92.23;;;43.80;;
34920;SDS011;21128;50.016;20.002;2023-03-01T05:30:12;88.23;;;46.20;;
34920;SDS011;21128;50.016;20.002;2023-03-01T05:32:44;103.33;;;47.97;;
34920;SDS011;21128;50.016;20.002;2023-03-01T05:35:13;81.53;;;45.80;;
34920;SDS011;21128;50.016;20.002;2023-03-01T05:37:43;92.47;;;47.40;;
34920;SDS011;21128;50.016;20.002;2023-03-01T05:40:12;95.13;;;47.80;;
34920;SDS011;21128;50.016;20.002;2023-03-01T05:42:51;94.80;;;49.10;;
34920;SDS011;21128;50.016;20.002;2023-03-01T05:45:21;90.07;;;46.43;;
34920;SDS011;21128;50.016;20.002;2023-03-01T05:47:50;92.30;;;46.70;;
34920;SDS011;21128;50.016;20.002;2023-03-01T05:50:19;98.13;;;47.70;;
34920;SDS011;21128;50.016;20.002;2023-03-01T05:52:51;93.33;;;47.30;;
34920;SDS011;21128;50.016;20.002;2023-03-01T05:55:23;97.23;;;49.77;;
34920;SDS011;21128;50.016;20.002;2023-03-01T05:57:50;93.23;;;46.77;;
34920;SDS011;21128;50.016;20.002;2023-03-01T06:00:19;92.87;;;49.27;;
34920;SDS011;21128;50.016;20.002;2023-03-01T06:02:50;100.27;;;49.93;;
34920;SDS011;21128;50.016;20.002;2023-03-01T06:05:18;96.73;;;49.93;;
34920;SDS011;21128;50.016;20.002;2023-03-01T06:07:45;96.37;;;50.48;;
34920;SDS011;21128;50.016;20.002;2023-03-01T06:10:12;99.70;;;51.80;;
34920;SDS011;21128;50.016;20.002;2023-03-01T06:12:41;108.97;;;51.85;;
34920;SDS011;21128;50.016;20.002;2023-03-01T06:15:13;99.00;;;51.33;;
34920;SDS011;21128;50.016;20.002;2023-03-01T06:17:43;95.03;;;49.33;;
34920;SDS011;21128;50.016;20.002;2023-03-01T06:22:43;107.10;;;52.07;;
34920;SDS011;21128;50.016;20.002;2023-03-01T06:25:12;109.80;;;51.17;;
34920;SDS011;21128;50.016;20.002;2023-03-01T06:27:41;104.97;;;50.97;;
34920;SDS011;21128;50.016;20.002;2023-03-01T06:30:09;100.67;;;48.77;;
34920;SDS011;21128;50.016;20.002;2023-03-01T06:32:38;95.00;;;50.73;;
34920;SDS011;21128;50.016;20.002;2023-03-01T06:35:12;96.43;;;49.20;;
34920;SDS011;21128;50.016;20.002;2023-03-01T06:37:40;93.70;;;48.70;;
34920;SDS011;21128;50.016;20.002;2023-03-01T06:40:08;90.03;;;47.87;;
34920;SDS011;21128;50.016;20.002;2023-03-01T06:42:38;92.53;;;49.70;;
34920;SDS011;21128;50.016;20.002;2023-03-01T06:45:08;96.33;;;47.90;;
34920;SDS011;21128;50.016;20.002;2023-03-01T06:47:35;98.50;;;48.67;;
34920;SDS011;21128;50.016;20.002;2023-03-01T06:50:03;86.10;;;48.53;;
34920;SDS011;21128;50.016;20.002;2023-03-01T06:52:30;96.80;;;50.10;;
34920;SDS011;21128;50.016;20.002;2023-03-01T06:54:58;91.97;;;46.88;;
34920;SDS011;21128;50.016;20.002;2023-03-01T06:57:25;93.73;;;51.20;;
34920;SDS011;21128;50.016;20.002;2023-03-01T06:59:52;104.03;;;50.67;;
34920;SDS011;21128;50.016;20.002;2023-03-01T07:02:19;90.10;;;49.38;;
34920;SDS011;21128;50.016;20.002;2023-03-01T07:04:47;99.10;;;51.25;;
34920;SDS011;21128;50.016;20.002;2023-03-01T07:07:16;92.10;;;49.60;;
34920;SDS011;21128;50.016;20.002;2023-03-01T07:09:44;98.73;;;52.50;;
34920;SDS011;21128;50.016;20.002;2023-03-01T07:12:12;94.20;;;50.20;;
34920;SDS011;21128;50.016;20.002;2023-03-01T07:14:39;94.20;;;51.57;;
34920;SDS011;21128;50.016;20.002;2023-03-01T07:17:07;94.50;;;50.95;;
34920;SDS011;21128;50.016;20.002;2023-03-01T07:19:34;95.90;;;52.97;;
34920;SDS011;21128;50.016;20.002;2023-03-01T07:22:01;93.97;;;49.77;;
34920;SDS011;21128;50.016;20.002;2023-03-01T07:24:31;108.03;;;56.73;;
34920;SDS011;21128;50.016;20.002;2023-03-01T07:26:58;104.40;;;53.67;;
34920;SDS011;21128;50.016;20.002;2023-03-01T07:29:25;106.63;;;57.88;;
34920;SDS011;21128;50.016;20.002;2023-03-01T07:31:52;100.20;;;55.77;;
34920;SDS011;21128;50.016;20.002;2023-03-01T07:34:19;97.03;;;57.33;;
34920;SDS011;21128;50.016;20.002;2023-03-01T07:36:46;103.03;;;55.87;;
34920;SDS011;21128;50.016;20.002;2023-03-01T07:39:14;101.90;;;58.87;;
34920;SDS011;21128;50.016;20.002;2023-03-01T07:41:40;109.93;;;57.53;;
34920;SDS011;21128;50.016;20.002;2023-03-01T07:44:07;103.17;;;56.00;;
34920;SDS011;21128;50.016;20.002;2023-03-01T07:46:36;101.33;;;57.63;;
34920;SDS011;21128;50.016;20.002;2023-03-01T07:49:03;102.20;;;57.60;;
34920;SDS011;21128;50.016;20.002;2023-03-01T07:51:31;108.73;;;59.80;;
34920;SDS011;21128;50.016;20.002;2023-03-01T07:53:58;96.10;;;57.15;;
34920;SDS011;21128;50.016;20.002;2023-03-01T07:56:25;96.20;;;54.90;;
34920;SDS011;21128;50.016;20.002;2023-03-01T07:58:52;106.47;;;57.35;;
34920;SDS011;21128;50.016;20.002;2023-03-01T08:01:20;110.93;;;61.63;;
34920;SDS011;21128;50.016;20.002;2023-03-01T08:03:48;100.17;;;57.63;;
34920;SDS011;21128;50.016;20.002;2023-03-01T08:06:16;117.10;;;59.70;;
34920;SDS011;21128;50.016;20.002;2023-03-01T08:08:44;96.90;;;57.20;;
34920;SDS011;21128;50.016;20.002;2023-03-01T08:11:12;102.73;;;59.60;;
34920;SDS011;21128;50.016;20.002;2023-03-01T08:13:41;102.17;;;58.90;;
34920;SDS011;21128;50.016;20.002;2023-03-01T08:16:11;109.85;;;60.00;;
34920;SDS011;21128;50.016;20.002;2023-03-01T08:18:39;94.33;;;57.07;;
34920;SDS011;21128;50.016;20.002;2023-03-01T08:21:13;94.73;;;57.27;;
34920;SDS011;21128;50.016;20.002;2023-03-01T08:23:44;98.15;;;58.20;;
34920;SDS011;21128;50.016;20.002;2023-03-01T08:26:13;102.70;;;57.27;;
34920;SDS011;21128;50.016;20.002;2023-03-01T08:28:42;96.27;;;57.23;;
34920;SDS011;21128;50.016;20.002;2023-03-01T08:31:17;91.00;;;54.23;;
34920;SDS011;21128;50.016;20.002;2023-03-01T08:33:47;88.73;;;53.00;;
34920;SDS011;21128;50.016;20.002;2023-03-01T08:36:22;90.77;;;53.13;;
34920;SDS011;21128;50.016;20.002;2023-03-01T08:38:50;91.77;;;50.63;;
34920;SDS011;21128;50.016;20.002;2023-03-01T08:41:18;91.43;;;52.37;;
34920;SDS011;21128;50.016;20.002;2023-03-01T08:43:46;82.07;;;50.77;;
34920;SDS011;21128;50.016;20.002;2023-03-01T08:46:13;84.65;;;47.58;;
34920;SDS011;21128;50.016;20.002;2023-03-01T08:48:40;85.30;;;49.80;;
34920;SDS011;21128;50.016;20.002;2023-03-01T08:51:15;79.13;;;50.03;;
34920;SDS011;21128;50.016;20.002;2023-03-01T08:53:44;91.55;;;49.95;;
34920;SDS011;21128;50.016;20.002;2023-03-01T08:56:12;76.43;;;46.20;;
34920;SDS011;21128;50.016;20.002;2023-03-01T08:58:39;76.23;;;45.50;;
34920;SDS011;21128;50.016;20.002;2023-03-01T09:01:07;75.00;;;43.23;;
34920;SDS011;21128;50.016;20.002;2023-03-01T09:03:36;80.43;;;46.67;;
34920;SDS011;21128;50.016;20.002;2023-03-01T09:06:04;81.77;;;46.03;;
34920;SDS011;21128;50.016;20.002;2023-03-01T09:08:34;67.33;;;40.13;;
34920;SDS011;21128;50.016;20.002;2023-03-01T09:11:03;53.70;;;30.53;;
34920;SDS011;21128;50.016;20.002;2023-03-01T09:13:32;52.70;;;30.63;;
34920;SDS011;21128;50.016;20.002;2023-03-01T09:16:00;58.53;;;31.77;;
34920;SDS011;21128;50.016;20.002;2023-03-01T09:18:29;60.97;;;35.10;;
34920;SDS011;21128;50.016;20.002;2023-03-01T09:23:37;44.47;;;26.53;;
34920;SDS011;21128;50.016;20.002;2023-03-01T09:26:07;38.50;;;20.45;;
34920;SDS011;21128;50.016;20.002;2023-03-01T09:28:40;39.47;;;22.77;;
34920;SDS011;21128;50.016;20.002;2023-03-01T09:33:41;42.70;;;23.67;;
34920;SDS011;21128;50.016;20.002;2023-03-01T09:36:13;46.73;;;24.43;;
34920;SDS011;21128;50.016;20.002;2023-03-01T09:38:45;63.53;;;29.40;;
34920;SDS011;21128;50.016;20.002;2023-03-01T09:41:36;65.65;;;28.05;;
34920;SDS011;21128;50.016;20.002;2023-03-01T09:44:25;30.80;;;17.90;;
34920;SDS011;21128;50.016;20.002;2023-03-01T09:47:18;37.80;;;19.83;;
34920;SDS011;21128;50.016;20.002;2023-03-01T09:49:53;37.40;;;18.63;;
34920;SDS011;21128;50.016;20.002;2023-03-01T09:53:04;34.80;;;18.10;;
34920;SDS011;21128;50.016;20.002;2023-03-01T09:55:41;35.23;;;18.50;;
34920;SDS011;21128;50.016;20.002;2023-03-01T10:01:10;37.60;;;21.60;;
34920;SDS011;21128;50.016;20.002;2023-03-01T10:03:44;47.47;;;23.77;;
34920;SDS011;21128;50.016;20.002;2023-03-01T10:06:36;50.20;;;24.97;;
34920;SDS011;21128;50.016;20.002;2023-03-01T10:09:12;41.67;;;24.10;;
34920;SDS011;21128;50.016;20.002;2023-03-01T10:11:44;37.43;;;23.07;;
34920;SDS011;21128;50.016;20.002;2023-03-01T10:17:37;44.63;;;22.00;;
34920;SDS011;21128;50.016;20.002;2023-03-01T10:23:08;38.30;;;20.70;;
34920;SDS011;21128;50.016;20.002;2023-03-01T10:25:43;38.23;;;22.43;;
34920;SDS011;21128;50.016;20.002;2023-03-01T10:28:31;43.83;;;23.67;;
34920;SDS011;21128;50.016;20.002;2023-03-01T10:31:27;36.97;;;20.57;;
34920;SDS011;21128;50.016;20.002;2023-03-01T10:34:10;43.87;;;23.50;;
34920;SDS011;21128;50.016;20.002;2023-03-01T10:36:49;45.73;;;23.87;;
34920;SDS011;21128;50.016;20.002;2023-03-01T10:39:20;40.73;;;23.90;;
34920;SDS011;21128;50.016;20.002;2023-03-01T10:44:46;41.20;;;23.03;;
34920;SDS011;21128;50.016;20.002;2023-03-01T10:49:53;39.70;;;22.17;;
34920;SDS011;21128;50.016;20.002;2023-03-01T10:52:35;36.47;;;19.37;;
34920;SDS011;21128;50.016;20.002;2023-03-01T10:57:40;38.47;;;22.40;;
34920;SDS011;21128;50.016;20.002;2023-03-01T11:05:25;47.00;;;25.08;;
34920;SDS011;21128;50.016;20.002;2023-03-01T11:07:57;48.55;;;26.25;;
34920;SDS011;21128;50.016;20.002;2023-03-01T11:10:26;50.93;;;27.57;;
34920;SDS011;21128;50.016;20.002;2023-03-01T11:13:15;50.15;;;28.35;;
34920;SDS011;21128;50.016;20.002;2023-03-01T11:16:06;50.33;;;27.70;;
34920;SDS011;21128;50.016;20.002;2023-03-01T11:18:38;45.50;;;27.13;;
34920;SDS011;21128;50.016;20.002;2023-03-01T11:21:06;52.37;;;27.67;;
34920;SDS011;21128;50.016;20.002;2023-03-01T11:23:35;49.07;;;26.80;;
34920;SDS011;21128;50.016;20.002;2023-03-01T11:26:07;43.13;;;27.67;;
34920;SDS011;21128;50.016;20.002;2023-03-01T11:28:36;48.30;;;27.23;;
34920;SDS011;21128;50.016;20.002;2023-03-01T11:31:07;46.10;;;28.27;;
34920;SDS011;21128;50.016;20.002;2023-03-01T11:33:44;43.27;;;25.90;;
34920;SDS011;21128;50.016;20.002;2023-03-01T11:39:28;44.67;;;26.37;;
34920;SDS011;21128;50.016;20.002;2023-03-01T11:45:12;49.97;;;25.97;;
34920;SDS011;21128;50.016;20.002;2023-03-01T11:50:53;43.43;;;25.57;;
34920;SDS011;21128;50.016;20.002;2023-03-01T11:56:38;44.33;;;24.93;;
34920;SDS011;21128;50.016;20.002;2023-03-01T12:07:53;36.10;;;23.10;;
34920;SDS011;21128;50.016;20.002;2023-03-01T12:10:33;43.20;;;25.20;;
34920;SDS011;21128;50.016;20.002;2023-03-01T12:18:40;40.03;;;22.93;;
34920;SDS011;21128;50.016;20.002;2023-03-01T12:23:55;43.80;;;24.57;;
34920;SDS011;21128;50.016;20.002;2023-03-01T12:27:47;48.60;;;24.73;;
34920;SDS011;21128;50.016;20.002;2023-03-01T12:29:51;47.30;;;25.80;;
34920;SDS011;21128;50.016;20.002;2023-03-01T12:35:24;47.43;;;25.27;;
34920;SDS011;21128;50.016;20.002;2023-03-01T12:49:08;46.90;;;24.77;;
34920;SDS011;21128;50.016;20.002;2023-03-01T12:51:50;45.63;;;25.80;;
34920;SDS011;21128;50.016;20.002;2023-03-01T12:54:26;50.47;;;27.97;;
34920;SDS011;21128;50.016;20.002;2023-03-01T12:56:55;48.27;;;29.13;;
34920;SDS011;21128;50.016;20.002;2023-03-01T13:02:14;42.80;;;25.00;;
34920;SDS011;21128;50.016;20.002;2023-03-01T13:07:58;43.50;;;25.87;;
34920;SDS011;21128;50.016;20.002;2023-03-01T13:13:44;42.57;;;24.60;;
34920;SDS011;21128;50.016;20.002;2023-03-01T13:21:42;39.60;;;22.77;;
34920;SDS011;21128;50.016;20.002;2023-03-01T13:29:55;38.90;;;21.30;;
34920;SDS011;21128;50.016;20.002;2023-03-01T13:32:32;34.70;;;21.27;;
34920;SDS011;21128;50.016;20.002;2023-03-01T13:35:01;37.47;;;21.33;;
34920;SDS011;21128;50.016;20.002;2023-03-01T13:37:45;42.50;;;21.30;;
34920;SDS011;21128;50.016;20.002;2023-03-01T13:42:48;35.23;;;20.47;;
34920;SDS011;21128;50.016;20.002;2023-03-01T13:47:54;32.67;;;18.33;;
34920;SDS011;21128;50.016;20.002;2023-03-01T13:50:27;30.67;;;17.33;;
34920;SDS011;21128;50.016;20.002;2023-03-01T13:52:59;35.00;;;17.90;;
34920;SDS011;21128;50.016;20.002;2023-03-01T13:58:16;34.10;;;16.90;;
34920;SDS011;21128;50.016;20.002;2023-03-01T14:00:54;29.83;;;16.10;;
34920;SDS011;21128;50.016;20.002;2023-03-01T14:03:33;27.13;;;17.30;;
34920;SDS011;21128;50.016;20.002;2023-03-01T14:06:14;32.33;;;18.33;;
34920;SDS011;21128;50.016;20.002;2023-03-01T14:08:48;38.47;;;19.60;;
34920;SDS011;21128;50.016;20.002;2023-03-01T14:19:47;35.47;;;17.70;;
34920;SDS011;21128;50.016;20.002;2023-03-01T14:25:04;29.47;;;17.17;;
34920;SDS011;21128;50.016;20.002;2023-03-01T14:27:43;30.43;;;17.23;;
34920;SDS011;21128;50.016;20.002;2023-03-01T14:30:11;28.07;;;17.43;;
34920;SDS011;21128;50.016;20.002;2023-03-01T14:33:01;31.40;;;15.97;;
34920;SDS011;21128;50.016;20.002;2023-03-01T14:35:31;30.47;;;15.90;;
34920;SDS011;21128;50.016;20.002;2023-03-01T14:38:00;32.37;;;18.87;;
34920;SDS011;21128;50.016;20.002;2023-03-01T14:40:28;29.40;;;17.70;;
34920;SDS011;21128;50.016;20.002;2023-03-01T14:42:56;34.50;;;18.43;;
34920;SDS011;21128;50.016;20.002;2023-03-01T14:45:27;29.85;;;17.05;;
34920;SDS011;21128;50.016;20.002;2023-03-01T14:47:58;27.83;;;17.27;;
34920;SDS011;21128;50.016;20.002;2023-03-01T14:50:29;28.23;;;16.57;;
34920;SDS011;21128;50.016;20.002;2023-03-01T14:52:59;25.67;;;16.57;;
34920;SDS011;21128;50.016;20.002;2023-03-01T14:55:30;31.90;;;16.83;;
34920;SDS011;21128;50.016;20.002;2023-03-01T14:58:05;25.70;;;15.68;;
34920;SDS011;21128;50.016;20.002;2023-03-01T15:00:35;33.47;;;17.33;;
34920;SDS011;21128;50.016;20.002;2023-03-01T15:03:14;28.60;;;15.37;;
34920;SDS011;21128;50.016;20.002;2023-03-01T15:05:46;27.40;;;15.83;;
34920;SDS011;21128;50.016;20.002;2023-03-01T15:08:17;28.87;;;15.97;;
34920;SDS011;21128;50.016;20.002;2023-03-01T15:13:26;26.37;;;15.97;;
34920;SDS011;21128;50.016;20.002;2023-03-01T15:16:07;31.73;;;15.63;;
34920;SDS011;21128;50.016;20.002;2023-03-01T15:18:44;23.45;;;15.53;;
34920;SDS011;21128;50.016;20.002;2023-03-01T15:21:17;29.97;;;16.00;;
34920;SDS011;21128;50.016;20.002;2023-03-01T15:23:48;26.17;;;15.10;;
34920;SDS011;21128;50.016;20.002;2023-03-01T15:26:22;28.43;;;16.70;;
34920;SDS011;21128;50.016;20.002;2023-03-01T15:28:50;26.33;;;17.07;;
34920;SDS011;21128;50.016;20.002;2023-03-01T15:31:20;25.73;;;15.80;;
34920;SDS011;21128;50.016;20.002;2023-03-01T15:33:50;32.63;;;17.10;;
34920;SDS011;21128;50.016;20.002;2023-03-01T15:39:22;31.50;;;17.80;;
34920;SDS011;21128;50.016;20.002;2023-03-01T15:41:56;32.17;;;17.70;;
34920;SDS011;21128;50.016;20.002;2023-03-01T15:44:28;36.17;;;19.33;;
34920;SDS011;21128;50.016;20.002;2023-03-01T15:46:56;30.85;;;19.85;;
34920;SDS011;21128;50.016;20.002;2023-03-01T15:52:01;34.07;;;17.93;;
34920;SDS011;21128;50.016;20.002;2023-03-01T15:54:30;37.23;;;20.50;;
34920;SDS011;21128;50.016;20.002;2023-03-01T15:56:57;30.80;;;19.10;;
34920;SDS011;21128;50.016;20.002;2023-03-01T15:59:24;44.37;;;20.20;;
34920;SDS011;21128;50.016;20.002;2023-03-01T16:01:51;35.07;;;19.70;;
34920;SDS011;21128;50.016;20.002;2023-03-01T16:04:18;33.43;;;19.60;;
34920;SDS011;21128;50.016;20.002;2023-03-01T16:06:50;33.70;;;18.73;;
34920;SDS011;21128;50.016;20.002;2023-03-01T16:09:22;33.23;;;20.17;;
34920;SDS011;21128;50.016;20.002;2023-03-01T16:11:50;36.30;;;19.87;;
34920;SDS011;21128;50.016;20.002;2023-03-01T16:14:18;45.33;;;20.87;;
34920;SDS011;21128;50.016;20.002;2023-03-01T16:16:46;40.17;;;20.40;;
34920;SDS011;21128;50.016;20.002;2023-03-01T16:19:17;53.77;;;23.23;;
34920;SDS011;21128;50.016;20.002;2023-03-01T16:21:44;44.10;;;21.97;;
34920;SDS011;21128;50.016;20.002;2023-03-01T16:24:14;37.93;;;20.13;;
34920;SDS011;21128;50.016;20.002;2023-03-01T16:26:41;48.63;;;21.63;;
34920;SDS011;21128;50.016;20.002;2023-03-01T16:29:08;41.00;;;21.40;;
34920;SDS011;21128;50.016;20.002;2023-03-01T16:31:35;43.30;;;21.07;;
34920;SDS011;21128;50.016;20.002;2023-03-01T16:34:02;42.23;;;20.33;;
34920;SDS011;21128;50.016;20.002;2023-03-01T16:36:29;40.35;;;21.48;;